createdAt,value
2018-05-02T00:01:53.395Z,55.40
2018-05-02T00:03:56.558Z,55.40
2018-05-02T00:06:00.478Z,55.00
2018-05-02T00:08:04.406Z,56.10
2018-05-02T00:10:07.576Z,55.40
2018-05-02T00:12:11.195Z,55.40
2018-05-02T00:14:14.386Z,55.40
2018-05-02T00:16:17.547Z,55.40
2018-05-02T00:18:20.712Z,55.50
2018-05-02T00:20:23.871Z,56.10
2018-05-02T00:22:27.791Z,55.90
2018-05-02T00:24:31.722Z,56.20
2018-05-02T00:26:35.659Z,56.20
2018-05-02T00:28:39.643Z,56.20
2018-05-02T00:30:42.759Z,56.30
2018-05-02T00:32:45.915Z,56.10
2018-05-02T00:34:49.116Z,56.00
2018-05-02T00:36:53.028Z,56.00
2018-05-02T00:38:56.959Z,56.00
2018-05-02T00:41:00.978Z,55.90
2018-05-02T00:43:04.910Z,55.90
2018-05-02T00:45:08.867Z,56.00
2018-05-02T00:47:12.026Z,56.00
2018-05-02T00:49:18.948Z,55.90
2018-05-02T00:51:22.447Z,56.00
2018-05-02T00:53:26.366Z,56.30
2018-05-02T00:55:30.292Z,56.30
2018-05-02T00:57:34.223Z,56.30
2018-05-02T00:59:38.149Z,56.30
2018-05-02T01:01:43.678Z,56.30
2018-05-02T01:03:49.691Z,56.30
2018-05-02T01:05:54.726Z,56.20
2018-05-02T01:07:59.757Z,56.80
2018-05-02T01:10:05.583Z,55.90
2018-05-02T01:12:10.426Z,56.20
2018-05-02T01:14:15.542Z,56.10
2018-05-02T01:16:21.724Z,56.30
2018-05-02T01:18:26.709Z,56.30
2018-05-02T01:20:32.283Z,56.40
2018-05-02T01:22:37.344Z,56.50
2018-05-02T01:24:42.171Z,56.40
2018-05-02T01:26:48.514Z,56.60
2018-05-02T01:28:53.700Z,56.60
2018-05-02T01:30:58.551Z,56.50
2018-05-02T01:33:03.439Z,56.70
2018-05-02T01:35:09.483Z,56.80
2018-05-02T01:37:14.839Z,56.80
2018-05-02T01:39:19.803Z,57.40
2018-05-02T01:41:24.713Z,57.10
2018-05-02T01:43:29.299Z,57.00
2018-05-02T01:45:34.526Z,57.10
2018-05-02T01:47:39.769Z,57.10
2018-05-02T01:49:44.866Z,57.10
2018-05-02T01:51:49.769Z,57.10
2018-05-02T01:53:54.595Z,56.90
2018-05-02T01:55:59.599Z,56.70
2018-05-02T01:58:05.155Z,56.90
2018-05-02T02:00:14.747Z,57.00
2018-05-02T02:02:18.379Z,57.10
2018-05-02T02:04:23.742Z,57.20
2018-05-02T02:06:28.502Z,57.20
2018-05-02T02:08:33.046Z,57.20
2018-05-02T02:10:37.695Z,57.40
2018-05-02T02:12:41.872Z,57.50
2018-05-02T02:14:46.361Z,57.70
2018-05-02T02:16:51.577Z,57.60
2018-05-02T02:18:56.975Z,57.60
2018-05-02T02:21:00.258Z,57.60
2018-05-02T02:23:04.606Z,57.40
2018-05-02T02:25:07.835Z,57.40
2018-05-02T02:27:11.031Z,57.40
2018-05-02T02:29:14.200Z,57.20
2018-05-02T02:31:18.144Z,57.40
2018-05-02T02:33:21.301Z,57.40
2018-05-02T02:35:24.455Z,57.40
2018-05-02T02:37:28.378Z,57.60
2018-05-02T02:39:32.314Z,57.50
2018-05-02T02:41:35.470Z,57.50
2018-05-02T02:43:38.658Z,57.60
2018-05-02T02:45:41.824Z,57.60
2018-05-02T02:47:45.759Z,57.80
2018-05-02T02:49:48.915Z,57.80
2018-05-02T02:51:52.083Z,57.80
2018-05-02T02:53:55.256Z,57.80
2018-05-02T02:55:58.410Z,57.80
2018-05-02T02:58:01.571Z,57.50
2018-05-02T03:00:04.738Z,57.80
2018-05-02T03:02:07.902Z,57.90
2018-05-02T03:04:11.838Z,57.70
2018-05-02T03:06:15.342Z,57.70
2018-05-02T03:08:19.263Z,57.70
2018-05-02T03:10:23.187Z,57.80
2018-05-02T03:12:27.126Z,57.90
2018-05-02T03:14:30.635Z,58.50
2018-05-02T03:16:34.559Z,58.20
2018-05-02T03:18:38.631Z,58.20
2018-05-02T03:20:41.785Z,58.20
2018-05-02T03:22:45.740Z,58.30
2018-05-02T03:24:48.905Z,58.30
2018-05-02T03:26:52.079Z,58.30
2018-05-02T03:28:55.264Z,58.40
2018-05-02T03:30:58.424Z,58.30
2018-05-02T03:33:01.586Z,58.40
2018-05-02T03:35:04.747Z,58.60
2018-05-02T03:37:07.911Z,58.50
2018-05-02T03:39:11.071Z,58.50
2018-05-02T03:41:14.226Z,58.40
2018-05-02T03:43:17.397Z,58.30
2018-05-02T03:45:21.343Z,58.60
2018-05-02T03:47:24.566Z,58.60
2018-05-02T03:49:27.788Z,58.60
2018-05-02T03:51:30.943Z,58.70
2018-05-02T03:53:34.862Z,58.70
2018-05-02T03:55:39.807Z,58.70
2018-05-02T03:57:44.210Z,58.70
2018-05-02T04:00:06.930Z,58.60
2018-05-02T04:02:29.666Z,58.50
2018-05-02T04:04:52.199Z,58.40
2018-05-02T04:07:17.860Z,58.30
2018-05-02T04:09:22.352Z,58.30
2018-05-02T04:11:26.869Z,58.30
2018-05-02T04:13:31.453Z,58.30
2018-05-02T04:15:35.887Z,58.40
2018-05-02T04:17:39.704Z,58.50
2018-05-02T04:19:43.627Z,59.00
2018-05-02T04:21:47.586Z,58.30
2018-05-02T04:23:50.743Z,58.80
2018-05-02T04:25:53.903Z,58.80
2018-05-02T04:27:57.087Z,58.80
2018-05-02T04:30:01.020Z,58.80
2018-05-02T04:32:04.941Z,58.80
2018-05-02T04:34:08.871Z,58.90
2018-05-02T04:36:12.031Z,58.90
2018-05-02T04:38:15.197Z,59.10
2018-05-02T04:40:18.350Z,59.30
2018-05-02T04:42:21.544Z,59.20
2018-05-02T04:44:24.702Z,59.30
2018-05-02T04:46:28.635Z,59.40
2018-05-02T04:48:32.554Z,59.50
2018-05-02T04:50:36.515Z,59.70
2018-05-02T04:52:39.952Z,59.60
2018-05-02T04:54:43.070Z,59.70
2018-05-02T04:56:46.229Z,59.70
2018-05-02T04:58:49.382Z,59.70
2018-05-02T05:00:52.546Z,59.80
2018-05-02T05:02:55.710Z,59.70
2018-05-02T05:04:58.875Z,59.80
2018-05-02T05:07:02.459Z,59.80
2018-05-02T05:09:06.792Z,59.90
2018-05-02T05:11:10.726Z,59.90
2018-05-02T05:13:13.878Z,59.90
2018-05-02T05:15:17.055Z,59.90
2018-05-02T05:17:20.238Z,60.10
2018-05-02T05:19:24.166Z,60.20
2018-05-02T05:21:28.099Z,60.20
2018-05-02T05:23:31.268Z,60.10
2018-05-02T05:25:34.410Z,60.30
2018-05-02T05:27:38.333Z,60.60
2018-05-02T05:29:42.277Z,61.00
2018-05-02T05:31:45.407Z,61.00
2018-05-02T05:33:48.540Z,61.10
2018-05-02T05:35:51.703Z,61.20
2018-05-02T05:37:54.863Z,61.40
2018-05-02T05:39:58.004Z,61.60
2018-05-02T05:42:01.137Z,61.80
2018-05-02T05:44:04.301Z,62.10
2018-05-02T05:46:08.198Z,62.70
2018-05-02T05:48:11.336Z,62.70
2018-05-02T05:50:15.263Z,63.20
2018-05-02T05:52:19.171Z,63.40
2018-05-02T05:54:22.343Z,63.30
2018-05-02T05:56:25.502Z,63.30
2018-05-02T05:58:29.436Z,63.90
2018-05-02T06:00:32.578Z,63.90
2018-05-02T06:02:35.742Z,63.90
2018-05-02T06:04:39.668Z,64.10
2018-05-02T06:06:43.632Z,64.50
2018-05-02T06:08:46.733Z,64.50
2018-05-02T06:10:49.885Z,64.40
2018-05-02T06:12:53.015Z,64.60
2018-05-02T06:14:56.942Z,64.60
2018-05-02T06:17:00.848Z,64.40
2018-05-02T06:19:04.006Z,64.40
2018-05-02T06:21:07.408Z,64.40
2018-05-02T06:23:10.546Z,64.20
2018-05-02T06:25:14.455Z,64.50
2018-05-02T06:27:17.927Z,64.50
2018-05-02T06:29:21.824Z,64.50
2018-05-02T06:31:24.954Z,64.60
2018-05-02T06:33:28.895Z,64.30
2018-05-02T06:35:32.804Z,64.70
2018-05-02T06:37:36.848Z,65.60
2018-05-02T06:39:40.020Z,64.80
2018-05-02T06:41:43.160Z,64.90
2018-05-02T06:45:54.040Z,65.00
2018-05-02T06:47:57.183Z,65.30
2018-05-02T06:50:01.116Z,66.60
2018-05-02T06:52:04.291Z,65.80
2018-05-02T06:54:07.422Z,65.90
2018-05-02T06:56:11.418Z,66.20
2018-05-02T06:58:14.708Z,66.20
2018-05-02T07:00:17.952Z,66.20
2018-05-02T07:02:21.112Z,66.00
2018-05-02T07:04:24.247Z,66.20
2018-05-02T07:06:27.495Z,66.40
2018-05-02T07:08:31.430Z,66.30
2018-05-02T07:10:34.595Z,66.20
2018-05-02T07:12:37.728Z,66.30
2018-05-02T07:14:43.355Z,66.50
2018-05-02T07:16:47.792Z,66.50
2018-05-02T07:18:52.617Z,65.30
2018-05-02T07:20:56.658Z,65.40
2018-05-02T07:23:01.171Z,65.00
2018-05-02T07:25:05.919Z,64.80
2018-05-02T07:27:10.577Z,64.40
2018-05-02T07:29:15.134Z,63.90
2018-05-02T07:31:19.967Z,63.60
2018-05-02T07:33:24.730Z,62.90
2018-05-02T07:35:29.419Z,62.10
2018-05-02T07:37:33.923Z,61.30
2018-05-02T07:39:38.586Z,61.50
2018-05-02T07:41:43.904Z,60.10
2018-05-02T07:43:48.406Z,59.90
2018-05-02T07:45:53.001Z,59.40
2018-05-02T07:47:57.702Z,59.20
2018-05-02T07:50:02.335Z,58.90
2018-05-02T07:52:07.195Z,57.90
2018-05-02T07:54:11.883Z,56.70
2018-05-02T07:56:16.563Z,56.00
2018-05-02T07:58:21.171Z,55.50
2018-05-02T08:00:26.345Z,54.80
2018-05-02T08:02:30.922Z,54.60
2018-05-02T08:04:35.407Z,54.20
2018-05-02T08:06:42.565Z,54.20
2018-05-02T08:08:47.614Z,54.00
2018-05-02T08:10:52.899Z,53.70
2018-05-02T08:12:57.466Z,53.00
2018-05-02T08:15:02.262Z,52.50
2018-05-02T08:17:06.654Z,52.10
2018-05-02T08:19:11.804Z,51.60
2018-05-02T08:21:17.119Z,51.20
2018-05-02T08:23:22.709Z,51.20
2018-05-02T08:25:29.087Z,50.30
2018-05-02T08:27:34.840Z,50.20
2018-05-02T08:29:39.212Z,50.00
2018-05-02T08:31:44.005Z,49.60
2018-05-02T08:33:48.482Z,49.70
2018-05-02T08:35:53.889Z,48.50
2018-05-02T08:37:58.486Z,48.30
2018-05-02T08:40:03.138Z,48.30
2018-05-02T08:42:07.647Z,47.90
2018-05-02T08:44:12.999Z,47.20
2018-05-02T08:46:18.268Z,47.40
2018-05-02T08:48:23.479Z,46.90
2018-05-02T08:50:28.183Z,46.70
2018-05-02T08:52:32.717Z,46.70
2018-05-02T08:54:37.354Z,46.70
2018-05-02T08:56:42.655Z,45.50
2018-05-02T08:58:47.128Z,45.40
2018-05-02T09:00:52.444Z,44.90
2018-05-02T09:02:56.534Z,44.80
2018-05-02T09:05:00.904Z,44.40
2018-05-02T09:07:05.475Z,44.50
2018-05-02T09:09:10.122Z,43.30
2018-05-02T09:11:15.038Z,43.30
2018-05-02T09:13:19.603Z,43.10
2018-05-02T09:15:24.190Z,43.10
2018-05-02T09:17:28.784Z,42.50
2018-05-02T09:19:33.417Z,42.70
2018-05-02T09:21:38.011Z,42.40
2018-05-02T09:23:42.611Z,42.40
2018-05-02T09:25:47.332Z,41.70
2018-05-02T09:27:51.815Z,41.40
2018-05-02T09:29:57.391Z,41.30
2018-05-02T09:32:00.572Z,41.20
2018-05-02T09:34:03.738Z,41.90
2018-05-02T09:36:06.917Z,42.10
2018-05-02T09:38:10.090Z,41.10
2018-05-02T09:40:13.263Z,40.70
2018-05-02T09:42:16.405Z,40.00
2018-05-02T09:44:19.577Z,40.20
2018-05-02T09:46:22.731Z,39.70
2018-05-02T09:48:26.846Z,40.40
2018-05-02T09:50:30.771Z,39.40
2018-05-02T09:52:33.911Z,39.20
2018-05-02T09:54:37.851Z,38.80
2018-05-02T09:56:41.041Z,38.70
2018-05-02T09:58:44.966Z,38.40
2018-05-02T10:00:48.155Z,38.30
2018-05-02T10:02:51.298Z,38.60
2018-05-02T10:04:54.475Z,38.20
2018-05-02T10:06:57.647Z,37.50
2018-05-02T10:09:00.811Z,37.50
2018-05-02T10:11:03.975Z,37.40
2018-05-02T10:13:07.121Z,37.00
2018-05-02T10:15:11.032Z,36.50
2018-05-02T10:17:14.982Z,36.70
2018-05-02T10:19:18.127Z,35.90
2018-05-02T10:21:21.293Z,35.30
2018-05-02T10:23:25.229Z,35.40
2018-05-02T10:25:28.371Z,35.30
2018-05-02T10:27:31.511Z,35.80
2018-05-02T10:29:35.454Z,35.90
2018-05-02T10:31:39.354Z,35.30
2018-05-02T10:33:42.502Z,35.20
2018-05-02T10:35:45.671Z,35.50
2018-05-02T10:37:49.580Z,34.50
2018-05-02T10:39:52.724Z,34.40
2018-05-02T10:41:56.662Z,34.50
2018-05-02T10:43:59.805Z,34.40
2018-05-02T10:46:02.974Z,34.30
2018-05-02T10:48:06.123Z,34.20
2018-05-02T10:50:09.271Z,34.20
2018-05-02T10:52:13.214Z,34.50
2018-05-02T10:54:17.214Z,34.80
2018-05-02T10:56:21.887Z,34.60
2018-05-02T10:58:25.069Z,34.60
2018-05-02T11:00:28.243Z,34.60
2018-05-02T11:02:31.399Z,34.00
2018-05-02T11:04:35.305Z,33.90
2018-05-02T11:06:40.274Z,33.80
2018-05-02T11:08:43.522Z,33.70
2018-05-02T11:10:46.999Z,33.60
2018-05-02T11:12:50.311Z,33.70
2018-05-02T11:14:53.493Z,33.30
2018-05-02T11:16:57.431Z,33.20
2018-05-02T11:19:00.602Z,33.10
2018-05-02T11:21:03.734Z,33.50
2018-05-02T11:23:06.908Z,33.00
2018-05-02T11:25:10.051Z,32.80
2018-05-02T11:27:14.699Z,32.50
2018-05-02T11:29:17.868Z,32.30
2018-05-02T11:31:21.011Z,32.60
2018-05-02T11:33:25.876Z,32.30
2018-05-02T11:35:29.806Z,32.50
2018-05-02T11:37:33.847Z,32.60
2018-05-02T11:39:36.987Z,32.50
2018-05-02T11:41:40.229Z,32.70
2018-05-02T11:43:43.356Z,32.70
2018-05-02T11:45:47.270Z,32.80
2018-05-02T11:47:50.443Z,32.70
2018-05-02T11:49:53.595Z,32.70
2018-05-02T11:51:57.554Z,32.90
2018-05-02T11:54:01.464Z,32.90
2018-05-02T11:56:05.382Z,32.70
2018-05-02T11:58:09.286Z,32.30
2018-05-02T12:00:12.462Z,32.20
2018-05-02T12:02:15.630Z,33.60
2018-05-02T12:04:18.772Z,32.00
2018-05-02T12:06:21.959Z,32.30
2018-05-02T12:08:25.140Z,32.30
2018-05-02T12:10:28.364Z,32.20
2018-05-02T12:12:32.267Z,31.20
2018-05-02T12:14:36.182Z,30.70
2018-05-02T12:16:40.140Z,31.10
2018-05-02T12:18:43.335Z,31.00
2018-05-02T12:20:47.246Z,31.20
2018-05-02T12:22:51.199Z,30.80
2018-05-02T12:24:54.391Z,30.60
2018-05-02T12:26:58.307Z,30.70
2018-05-02T12:29:01.486Z,30.60
2018-05-02T12:31:04.649Z,30.40
2018-05-02T12:33:07.824Z,31.00
2018-05-02T12:35:11.735Z,30.40
2018-05-02T12:37:14.906Z,30.30
2018-05-02T12:39:18.110Z,30.00
2018-05-02T12:41:21.264Z,30.00
2018-05-02T12:43:25.912Z,30.00
2018-05-02T12:45:30.599Z,29.60
2018-05-02T12:47:33.742Z,29.50
2018-05-02T12:49:36.937Z,29.70
2018-05-02T12:51:40.091Z,29.60
2018-05-02T12:53:43.243Z,29.50
2018-05-02T12:55:46.423Z,29.90
2018-05-02T12:57:50.359Z,29.80
2018-05-02T12:59:53.502Z,30.10
2018-05-02T13:01:56.674Z,29.60
2018-05-02T13:03:59.827Z,29.90
2018-05-02T13:06:03.003Z,30.00
2018-05-02T13:08:06.257Z,29.90
2018-05-02T13:10:09.342Z,29.90
2018-05-02T13:12:12.516Z,30.00
2018-05-02T13:14:15.663Z,29.70
2018-05-02T13:16:18.833Z,30.00
2018-05-02T13:18:22.017Z,29.70
2018-05-02T13:20:25.951Z,30.20
2018-05-02T13:22:29.910Z,30.00
2018-05-02T13:24:33.154Z,30.00
2018-05-02T13:26:36.324Z,30.00
2018-05-02T13:28:39.466Z,30.30
2018-05-02T13:30:42.611Z,29.90
2018-05-02T13:32:46.774Z,30.00
2018-05-02T13:34:49.970Z,30.00
2018-05-02T13:36:53.184Z,30.10
2018-05-02T13:38:56.383Z,29.90
2018-05-02T13:40:59.555Z,30.00
2018-05-02T13:43:03.497Z,29.90
2018-05-02T13:45:07.454Z,29.50
2018-05-02T13:47:10.680Z,29.40
2018-05-02T13:49:13.903Z,29.70
2018-05-02T13:51:17.791Z,29.20
2018-05-02T13:53:20.960Z,29.20
2018-05-02T13:55:25.657Z,29.40
2018-05-02T13:57:28.807Z,29.30
2018-05-02T13:59:31.988Z,29.40
2018-05-02T14:01:35.131Z,29.50
2018-05-02T14:03:38.278Z,30.00
2018-05-02T14:05:41.579Z,30.00
2018-05-02T14:07:45.493Z,29.50
2018-05-02T14:09:49.398Z,29.50
2018-05-02T14:11:53.335Z,29.40
2018-05-02T14:13:57.253Z,29.60
2018-05-02T14:16:00.433Z,29.50
2018-05-02T14:18:03.591Z,29.70
2018-05-02T14:20:07.498Z,30.40
2018-05-02T14:22:11.448Z,29.80
2018-05-02T14:24:14.632Z,29.70
2018-05-02T14:26:18.601Z,29.70
2018-05-02T14:28:21.778Z,29.70
2018-05-02T14:30:25.727Z,29.80
2018-05-02T14:32:28.906Z,29.80
2018-05-02T14:34:32.867Z,30.10
2018-05-02T14:36:36.047Z,30.10
2018-05-02T14:38:39.982Z,29.90
2018-05-02T14:40:43.922Z,29.90
2018-05-02T14:42:47.096Z,29.90
2018-05-02T14:44:51.032Z,30.20
2018-05-02T14:46:54.966Z,29.60
2018-05-02T14:48:58.135Z,29.60
2018-05-02T14:51:01.306Z,29.70
2018-05-02T14:53:04.490Z,29.50
2018-05-02T14:55:08.419Z,29.80
2018-05-02T14:57:11.591Z,29.90
2018-05-02T14:59:15.530Z,30.00
2018-05-02T15:01:18.704Z,29.90
2018-05-02T15:03:22.104Z,30.20
2018-05-02T15:05:25.711Z,30.50
2018-05-02T15:07:29.502Z,30.40
2018-05-02T15:09:33.515Z,30.60
2018-05-02T15:11:36.770Z,30.60
2018-05-02T15:13:39.944Z,30.50
2018-05-02T15:15:43.907Z,30.40
2018-05-02T15:17:47.097Z,30.40
2018-05-02T15:19:50.287Z,30.40
2018-05-02T15:21:54.221Z,30.10
2018-05-02T15:23:58.147Z,30.10
2018-05-02T15:26:02.095Z,30.00
2018-05-02T15:28:05.277Z,30.00
2018-05-02T15:30:09.227Z,30.10
2018-05-02T15:32:12.413Z,30.10
2018-05-02T15:34:16.365Z,31.10
2018-05-02T15:36:19.550Z,31.00
2018-05-02T15:38:23.486Z,31.00
2018-05-02T15:40:26.897Z,31.00
2018-05-02T15:42:29.940Z,31.00
2018-05-02T15:44:33.104Z,31.20
2018-05-02T15:46:37.133Z,31.20
2018-05-02T15:48:40.351Z,31.20
2018-05-02T15:50:43.523Z,31.40
2018-05-02T15:52:46.686Z,31.20
2018-05-02T15:54:49.912Z,31.10
2018-05-02T15:56:53.095Z,31.10
2018-05-02T15:58:56.405Z,31.10
2018-05-02T16:01:01.060Z,30.90
2018-05-02T16:03:05.536Z,31.10
2018-05-02T16:05:09.974Z,32.20
2018-05-02T16:07:16.147Z,31.60
2018-05-02T16:09:19.355Z,31.50
2018-05-02T16:11:22.522Z,31.60
2018-05-02T16:13:25.710Z,31.50
2018-05-02T16:15:28.887Z,31.20
2018-05-02T16:17:32.839Z,31.20
2018-05-02T16:19:36.866Z,31.10
2018-05-02T16:21:40.098Z,31.10
2018-05-02T16:23:43.398Z,31.10
2018-05-02T16:25:46.570Z,31.40
2018-05-02T16:27:50.681Z,31.50
2018-05-02T16:29:53.847Z,31.50
2018-05-02T16:31:57.018Z,31.60
2018-05-02T16:34:01.690Z,31.90
2018-05-02T16:36:05.153Z,31.80
2018-05-02T16:38:09.126Z,32.40
2018-05-02T16:40:13.254Z,32.40
2018-05-02T16:42:16.436Z,32.30
2018-05-02T16:44:19.609Z,32.40
2018-05-02T16:46:22.778Z,32.50
2018-05-02T16:48:26.731Z,32.60
2018-05-02T16:50:29.906Z,32.60
2018-05-02T16:52:33.884Z,32.90
2018-05-02T16:54:37.051Z,32.80
2018-05-02T16:56:41.079Z,32.80
2018-05-02T16:58:44.193Z,32.80
2018-05-02T17:00:47.698Z,33.10
2018-05-02T17:02:51.635Z,33.80
2018-05-02T17:04:54.846Z,33.80
2018-05-02T17:06:58.040Z,34.10
2018-05-02T17:09:01.993Z,34.40
2018-05-02T17:11:05.241Z,34.40
2018-05-02T17:13:09.124Z,34.50
2018-05-02T17:15:12.337Z,34.50
2018-05-02T17:17:15.829Z,34.80
2018-05-02T17:19:19.770Z,35.30
2018-05-02T17:21:22.947Z,35.30
2018-05-02T17:23:26.880Z,36.40
2018-05-02T17:25:30.811Z,36.40
2018-05-02T17:27:34.744Z,36.80
2018-05-02T17:29:38.705Z,37.10
2018-05-02T17:31:41.893Z,37.10
2018-05-02T17:33:45.077Z,37.20
2018-05-02T17:35:49.006Z,37.90
2018-05-02T17:37:52.946Z,37.70
2018-05-02T17:39:56.127Z,37.70
2018-05-02T17:42:00.275Z,39.20
2018-05-02T17:44:04.209Z,38.80
2018-05-02T17:46:07.386Z,38.70
2018-05-02T17:48:12.065Z,38.80
2018-05-02T17:50:15.234Z,38.80
2018-05-02T17:52:18.403Z,39.00
2018-05-02T17:54:21.595Z,39.10
2018-05-02T17:56:24.771Z,39.40
2018-05-02T17:58:28.714Z,39.70
2018-05-02T18:00:31.892Z,39.70
2018-05-02T18:02:35.085Z,39.80
2018-05-02T18:04:38.251Z,40.00
2018-05-02T18:06:41.431Z,40.20
2018-05-02T18:08:45.379Z,40.50
2018-05-02T18:10:48.543Z,40.50
2018-05-02T18:12:51.714Z,40.70
2018-05-02T18:14:54.893Z,41.10
2018-05-02T18:16:58.830Z,41.50
2018-05-02T18:19:02.008Z,41.50
2018-05-02T18:21:05.196Z,41.40
2018-05-02T18:23:08.390Z,41.50
2018-05-02T18:25:11.563Z,41.80
2018-05-02T18:27:14.768Z,42.00
2018-05-02T18:29:17.961Z,42.20
2018-05-02T18:31:21.892Z,42.30
2018-05-02T18:33:25.837Z,42.60
2018-05-02T18:35:29.027Z,42.60
2018-05-02T18:37:32.963Z,43.10
2018-05-02T18:39:36.903Z,43.30
2018-05-02T18:41:40.062Z,43.30
2018-05-02T18:43:43.239Z,43.40
2018-05-02T18:45:46.422Z,43.70
2018-05-02T18:47:49.618Z,43.80
2018-05-02T18:49:54.444Z,44.20
2018-05-02T18:51:58.395Z,44.40
2018-05-02T18:54:01.572Z,44.40
2018-05-02T18:56:05.529Z,44.70
2018-05-02T18:58:09.099Z,44.80
2018-05-02T19:00:12.315Z,44.90
2018-05-02T19:02:15.494Z,45.10
2018-05-02T19:04:18.981Z,45.00
2018-05-02T19:06:22.164Z,45.00
2018-05-02T19:08:26.112Z,45.60
2018-05-02T19:10:30.063Z,45.70
2018-05-02T19:12:33.269Z,45.80
2018-05-02T19:14:36.445Z,45.80
2018-05-02T19:16:40.395Z,46.30
2018-05-02T19:18:49.074Z,46.20
2018-05-02T19:20:52.243Z,46.40
2018-05-02T19:22:55.424Z,46.40
2018-05-02T19:25:04.807Z,46.80
2018-05-02T19:27:08.074Z,46.70
2018-05-02T19:29:12.024Z,47.00
2018-05-02T19:33:54.606Z,47.40
2018-05-02T19:35:57.790Z,47.40
2018-05-02T19:38:01.070Z,47.60
2018-05-02T19:40:10.719Z,47.80
2018-05-02T19:42:20.391Z,47.80
2018-05-02T19:44:24.379Z,48.00
2018-05-02T19:46:27.528Z,48.00
2018-05-02T19:48:31.034Z,48.10
2018-05-02T19:50:34.983Z,48.50
2018-05-02T19:52:43.717Z,49.20
2018-05-02T19:54:46.912Z,48.70
2018-05-02T19:56:51.139Z,48.80
2018-05-02T19:58:55.075Z,48.80
2018-05-02T20:01:03.866Z,48.90
2018-05-02T20:03:07.212Z,48.90
2018-05-02T20:05:11.159Z,49.10
2018-05-02T20:07:20.289Z,49.00
2018-05-02T20:09:28.923Z,49.00
2018-05-02T20:11:37.795Z,49.10
2018-05-02T20:13:46.635Z,49.10
2018-05-02T20:15:49.828Z,49.30
2018-05-02T20:17:53.002Z,49.40
2018-05-02T20:19:56.941Z,49.40
2018-05-02T20:22:01.087Z,49.40
2018-05-02T20:24:04.351Z,49.50
2018-05-02T20:26:08.632Z,49.90
2018-05-02T20:28:11.934Z,49.80
2018-05-02T20:30:15.120Z,49.80
2018-05-02T20:32:19.088Z,49.90
2018-05-02T20:34:22.816Z,49.90
2018-05-02T20:36:26.869Z,50.10
2018-05-02T20:38:30.019Z,50.10
2018-05-02T20:40:33.204Z,50.10
2018-05-02T20:42:37.137Z,50.80
2018-05-02T20:44:41.079Z,50.40
2018-05-02T20:46:44.259Z,50.40
2018-05-02T20:48:47.442Z,50.40
2018-05-02T20:50:50.615Z,50.40
2018-05-02T20:52:53.808Z,50.30
2018-05-02T20:54:57.224Z,50.30
2018-05-02T20:57:00.311Z,50.30
2018-05-02T20:59:04.266Z,50.50
2018-05-02T21:01:08.272Z,50.50
2018-05-02T21:03:12.298Z,50.70
2018-05-02T21:05:16.249Z,50.70
2018-05-02T21:07:19.422Z,50.80
2018-05-02T21:09:22.596Z,50.80
2018-05-02T21:11:25.778Z,51.00
2018-05-02T21:13:28.959Z,51.10
2018-05-02T21:15:32.903Z,51.50
2018-05-02T21:17:36.079Z,51.50
2018-05-02T21:19:39.256Z,51.50
2018-05-02T21:21:42.448Z,51.60
2018-05-02T21:23:45.630Z,51.60
2018-05-02T21:25:48.803Z,51.70
2018-05-02T21:27:51.984Z,51.60
2018-05-02T21:29:55.165Z,51.70
2018-05-02T21:31:58.335Z,51.80
2018-05-02T21:34:01.519Z,51.90
2018-05-02T21:36:04.702Z,51.70
2018-05-02T21:38:07.874Z,52.00
2018-05-02T21:40:11.811Z,52.00
2018-05-02T21:42:15.319Z,52.10
2018-05-02T21:44:19.268Z,52.40
2018-05-02T21:46:22.438Z,52.40
2018-05-02T21:48:25.611Z,52.30
2018-05-02T21:50:28.898Z,52.40
2018-05-02T21:52:36.234Z,52.40
2018-05-02T21:54:40.536Z,52.50
2018-05-02T21:56:43.818Z,52.50
2018-05-02T21:58:47.780Z,52.70
2018-05-02T22:00:50.955Z,52.70
2018-05-02T22:02:54.887Z,52.80
2018-05-02T22:04:58.063Z,52.90
2018-05-02T22:07:01.235Z,52.80
2018-05-02T22:09:04.403Z,53.00
2018-05-02T22:11:08.335Z,53.10
2018-05-02T22:13:11.522Z,53.10
2018-05-02T22:15:15.483Z,53.20
2018-05-02T22:17:18.651Z,53.20
2018-05-02T22:19:21.825Z,53.30
2018-05-02T22:21:24.991Z,53.30
2018-05-02T22:23:28.933Z,53.50
2018-05-02T22:25:32.168Z,53.50
2018-05-02T22:27:35.351Z,53.50
2018-05-02T22:29:38.521Z,53.70
2018-05-02T22:31:41.698Z,53.80
2018-05-02T22:33:44.875Z,53.90
2018-05-02T22:35:48.162Z,54.00
2018-05-02T22:37:52.497Z,54.10
2018-05-02T22:39:56.438Z,54.20
2018-05-02T22:41:59.634Z,54.20
2018-05-02T22:44:03.578Z,54.20
2018-05-02T22:46:06.870Z,54.30
2018-05-02T22:48:10.832Z,54.20
2018-05-02T22:50:13.998Z,54.20
2018-05-02T22:52:17.942Z,54.40
2018-05-02T22:54:21.116Z,54.40
2018-05-02T22:56:24.473Z,54.40
2018-05-02T22:58:28.254Z,54.50
2018-05-02T23:00:31.414Z,54.50
2018-05-02T23:02:34.973Z,54.60
2018-05-02T23:04:38.106Z,54.60
2018-05-02T23:06:42.130Z,54.80
2018-05-02T23:08:46.055Z,54.90
2018-05-02T23:10:49.994Z,54.90
2018-05-02T23:12:53.162Z,54.90
2018-05-02T23:14:57.098Z,55.00
2018-05-02T23:17:00.275Z,55.00
2018-05-02T23:19:03.466Z,55.00
2018-05-02T23:21:06.659Z,55.20
2018-05-02T23:23:09.829Z,55.30
2018-05-02T23:25:13.781Z,55.40
2018-05-02T23:27:17.711Z,55.40
2018-05-02T23:29:20.918Z,55.40
2018-05-02T23:31:25.038Z,55.30
2018-05-02T23:33:29.210Z,55.50
2018-05-02T23:35:32.371Z,55.40
2018-05-02T23:37:36.317Z,55.60
2018-05-02T23:39:39.507Z,55.60
2018-05-02T23:41:43.466Z,55.70
2018-05-02T23:43:47.722Z,55.80
2018-05-02T23:45:50.907Z,55.80
2018-05-02T23:47:54.091Z,55.80
2018-05-02T23:49:57.278Z,55.90
2018-05-02T23:52:00.467Z,56.00
2018-05-02T23:54:03.652Z,56.00
2018-05-02T23:56:06.831Z,56.20
2018-05-02T23:58:10.000Z,56.30
